createdAt,value
2018-08-09T00:02:53.695Z,20.09
2018-08-09T00:05:58.626Z,20.06
2018-08-09T00:09:03.201Z,20.02
2018-08-09T00:12:07.473Z,19.96
2018-08-09T00:15:12.429Z,19.91
2018-08-09T00:18:16.380Z,19.89
2018-08-09T00:21:20.335Z,19.84
2018-08-09T00:24:24.636Z,19.80
2018-08-09T00:27:28.889Z,19.76
2018-08-09T00:30:32.812Z,19.75
2018-08-09T00:33:36.795Z,19.72
2018-08-09T00:36:41.267Z,19.67
2018-08-09T00:39:45.209Z,19.63
2018-08-09T00:42:49.399Z,19.59
2018-08-09T00:45:53.354Z,19.55
2018-08-09T00:48:57.651Z,19.50
2018-08-09T00:52:01.658Z,19.45
2018-08-09T00:55:05.610Z,19.43
2018-08-09T00:58:15.770Z,19.39
2018-08-09T01:01:20.047Z,19.32
2018-08-09T01:04:23.994Z,19.30
2018-08-09T01:07:28.257Z,19.24
2018-08-09T01:10:32.541Z,19.23
2018-08-09T01:13:36.486Z,19.22
2018-08-09T01:16:40.418Z,19.17
2018-08-09T01:19:44.980Z,19.12
2018-08-09T01:25:52.054Z,19.05
2018-08-09T01:28:56.021Z,18.99
2018-08-09T01:31:59.956Z,18.97
2018-08-09T01:35:03.889Z,18.94
2018-08-09T01:38:08.851Z,18.91
2018-08-09T01:41:13.768Z,18.85
2018-08-09T01:44:18.021Z,18.84
2018-08-09T01:47:21.940Z,18.77
2018-08-09T01:50:26.192Z,18.75
2018-08-09T01:53:30.480Z,18.73
2018-08-09T01:56:34.361Z,18.70
2018-08-09T01:59:38.261Z,18.64
2018-08-09T02:02:42.729Z,18.63
2018-08-09T02:05:47.292Z,18.59
2018-08-09T02:08:51.265Z,18.61
2018-08-09T02:11:55.180Z,18.50
2018-08-09T02:14:59.091Z,18.49
2018-08-09T02:18:03.009Z,18.47
2018-08-09T02:21:08.632Z,18.43
2018-08-09T02:24:12.916Z,18.40
2018-08-09T02:27:18.076Z,18.32
2018-08-09T02:30:22.018Z,18.29
2018-08-09T02:33:25.927Z,18.29
2018-08-09T02:36:30.180Z,18.25
2018-08-09T02:39:34.132Z,18.19
2018-08-09T02:42:38.034Z,18.18
2018-08-09T02:45:42.089Z,18.17
2018-08-09T02:48:46.457Z,18.15
2018-08-09T02:51:50.685Z,18.13
2018-08-09T02:54:55.126Z,18.07
2018-08-09T02:58:00.606Z,18.05
2018-08-09T03:01:04.764Z,18.03
2018-08-09T03:04:08.707Z,18.03
2018-08-09T03:07:12.608Z,17.97
2018-08-09T03:10:16.509Z,17.96
2018-08-09T03:13:20.728Z,17.92
2018-08-09T03:16:26.180Z,17.89
2018-08-09T03:19:30.445Z,17.85
2018-08-09T03:22:35.684Z,17.80
2018-08-09T03:25:39.932Z,17.79
2018-08-09T03:28:43.845Z,17.79
2018-08-09T03:31:47.758Z,17.77
2018-08-09T03:34:51.664Z,17.76
2018-08-09T03:37:55.564Z,17.69
2018-08-09T03:40:59.733Z,17.67
2018-08-09T03:44:03.661Z,17.64
2018-08-09T03:47:07.713Z,17.62
2018-08-09T03:50:11.968Z,17.58
2018-08-09T03:53:16.186Z,17.59
2018-08-09T03:56:20.481Z,17.53
2018-08-09T03:59:24.468Z,17.53
2018-08-09T04:02:28.807Z,17.52
2018-08-09T04:05:32.697Z,17.45
2018-08-09T04:08:38.545Z,17.45
2018-08-09T04:11:43.500Z,17.46
2018-08-09T04:14:47.697Z,17.43
2018-08-09T04:17:51.969Z,17.42
2018-08-09T04:20:56.044Z,17.37
2018-08-09T04:24:00.296Z,17.35
2018-08-09T04:27:04.208Z,17.35
2018-08-09T04:30:08.520Z,17.35
2018-08-09T04:33:12.408Z,17.33
2018-08-09T04:36:16.392Z,17.34
2018-08-09T04:39:20.327Z,17.34
2018-08-09T04:42:24.809Z,17.33
2018-08-09T04:45:28.782Z,17.32
2018-08-09T04:48:33.260Z,17.31
2018-08-09T04:51:37.207Z,17.31
2018-08-09T04:54:41.119Z,17.34
2018-08-09T04:57:45.056Z,17.33
2018-08-09T05:00:48.940Z,17.35
2018-08-09T05:03:52.884Z,17.37
2018-08-09T05:06:56.818Z,17.44
2018-08-09T05:10:06.494Z,17.42
2018-08-09T05:13:10.747Z,17.47
2018-08-09T05:16:15.034Z,17.47
2018-08-09T05:19:19.284Z,17.56
2018-08-09T05:22:23.522Z,17.63
2018-08-09T05:25:28.053Z,17.71
2018-08-09T05:28:33.261Z,17.64
2018-08-09T05:31:38.123Z,17.62
2018-08-09T05:34:42.008Z,17.67
2018-08-09T05:37:46.183Z,17.69
2018-08-09T05:40:51.445Z,17.85
2018-08-09T05:43:55.588Z,17.92
2018-08-09T05:47:00.319Z,18.00
2018-08-09T05:50:04.671Z,18.06
2018-08-09T05:53:08.606Z,18.12
2018-08-09T05:56:12.706Z,18.16
2018-08-09T05:59:16.949Z,18.21
2018-08-09T06:02:21.184Z,18.27
2018-08-09T06:05:25.479Z,18.32
2018-08-09T06:08:30.625Z,18.38
2018-08-09T06:11:34.578Z,18.43
2018-08-09T06:14:38.683Z,18.50
2018-08-09T06:17:43.135Z,18.56
2018-08-09T06:20:47.028Z,18.64
2018-08-09T06:23:51.480Z,18.71
2018-08-09T06:26:55.374Z,18.78
2018-08-09T06:29:59.545Z,18.82
2018-08-09T06:33:03.445Z,18.88
2018-08-09T06:36:07.936Z,18.92
2018-08-09T06:39:11.884Z,18.97
2018-08-09T06:42:15.800Z,19.03
2018-08-09T06:45:19.747Z,19.08
2018-08-09T06:48:24.222Z,19.10
2018-08-09T06:51:28.401Z,19.15
2018-08-09T06:54:33.656Z,19.20
2018-08-09T06:57:37.919Z,19.24
2018-08-09T07:00:42.829Z,19.29
2018-08-09T07:03:47.149Z,19.32
2018-08-09T07:06:51.267Z,19.37
2018-08-09T07:09:55.361Z,19.41
2018-08-09T07:12:59.713Z,19.47
2018-08-09T07:16:05.239Z,19.52
2018-08-09T07:19:09.453Z,19.57
2018-08-09T07:22:13.389Z,19.62
2018-08-09T07:25:18.340Z,19.67
2018-08-09T07:28:23.609Z,19.73
2018-08-09T07:31:27.517Z,19.79
2018-08-09T07:34:31.421Z,19.85
2018-08-09T07:37:36.399Z,19.92
2018-08-09T07:40:40.621Z,19.98
2018-08-09T07:43:44.881Z,20.05
2018-08-09T07:46:50.053Z,20.13
2018-08-09T07:49:54.300Z,20.19
2018-08-09T07:52:58.229Z,20.28
2018-08-09T07:56:02.111Z,20.37
2018-08-09T07:59:07.558Z,20.45
2018-08-09T08:02:11.490Z,20.52
2018-08-09T08:05:15.593Z,20.58
2018-08-09T08:08:19.518Z,20.65
2018-08-09T08:11:23.732Z,20.72
2018-08-09T08:14:27.664Z,20.79
2018-08-09T08:17:32.875Z,20.84
2018-08-09T08:20:37.337Z,20.92
2018-08-09T08:23:41.461Z,21.00
2018-08-09T08:26:45.679Z,21.08
2018-08-09T08:29:50.040Z,21.17
2018-08-09T08:32:53.976Z,21.26
2018-08-09T08:35:58.196Z,21.35
2018-08-09T08:39:02.235Z,21.43
2018-08-09T08:42:07.175Z,21.52
2018-08-09T08:45:13.339Z,21.63
2018-08-09T08:48:18.261Z,21.73
2018-08-09T08:51:23.414Z,21.84
2018-08-09T08:54:27.328Z,21.97
2018-08-09T08:57:31.256Z,22.08
2018-08-09T09:00:35.145Z,22.20
2018-08-09T09:03:39.304Z,22.31
2018-08-09T09:06:43.252Z,22.42
2018-08-09T09:09:47.473Z,22.53
2018-08-09T09:12:51.628Z,22.65
2018-08-09T09:15:55.548Z,22.77
2018-08-09T09:19:00.920Z,22.88
2018-08-09T09:22:05.108Z,23.01
2018-08-09T09:25:10.343Z,23.12
2018-08-09T09:28:15.269Z,23.25
2018-08-09T09:31:19.521Z,23.35
2018-08-09T09:34:23.410Z,23.46
2018-08-09T09:37:27.367Z,23.58
2018-08-09T09:40:31.721Z,23.70
2018-08-09T09:43:35.663Z,23.81
2018-08-09T09:46:39.566Z,23.93
2018-08-09T09:49:44.093Z,24.05
2018-08-09T09:52:48.172Z,24.17
2018-08-09T09:55:52.467Z,24.29
2018-08-09T09:58:56.919Z,24.38
2018-08-09T10:02:01.893Z,24.50
2018-08-09T10:05:05.960Z,24.60
2018-08-09T10:08:09.922Z,24.68
2018-08-09T10:11:14.213Z,24.71
2018-08-09T10:14:18.129Z,24.77
2018-08-09T10:17:23.066Z,24.81
2018-08-09T10:20:26.976Z,24.83
2018-08-09T10:23:30.991Z,24.90
2018-08-09T10:26:35.032Z,24.98
2018-08-09T10:29:38.961Z,25.08
2018-08-09T10:32:42.872Z,25.17
2018-08-09T10:35:47.117Z,25.23
2018-08-09T10:38:52.101Z,25.29
2018-08-09T10:41:56.000Z,25.34
2018-08-09T10:45:00.923Z,25.40
2018-08-09T10:48:05.181Z,25.45
2018-08-09T10:51:09.116Z,25.53
2018-08-09T10:54:13.244Z,25.62
2018-08-09T10:57:17.136Z,25.69
2018-08-09T11:00:21.058Z,25.77
2018-08-09T11:03:25.287Z,25.86
2018-08-09T11:06:29.507Z,25.95
2018-08-09T11:09:33.565Z,26.02
2018-08-09T11:12:37.813Z,26.10
2018-08-09T11:15:42.009Z,26.17
2018-08-09T11:18:46.088Z,26.26
2018-08-09T11:21:50.000Z,26.35
2018-08-09T11:24:54.284Z,26.43
2018-08-09T11:27:58.272Z,26.51
2018-08-09T11:31:03.244Z,26.55
2018-08-09T11:34:07.460Z,26.62
2018-08-09T11:37:11.897Z,26.69
2018-08-09T11:40:15.916Z,26.72
2018-08-09T11:43:19.863Z,26.78
2018-08-09T11:46:23.796Z,26.83
2018-08-09T11:49:28.784Z,26.90
2018-08-09T11:52:32.912Z,26.97
2018-08-09T11:55:36.809Z,27.01
2018-08-09T11:58:40.994Z,27.03
2018-08-09T12:01:46.266Z,27.03
2018-08-09T12:04:50.292Z,27.04
2018-08-09T12:07:54.169Z,27.06
2018-08-09T12:10:58.105Z,27.06
2018-08-09T12:14:02.026Z,27.06
2018-08-09T12:17:06.269Z,27.07
2018-08-09T12:20:10.196Z,27.10
2018-08-09T12:23:14.380Z,27.11
2018-08-09T12:26:18.348Z,27.13
2018-08-09T12:29:22.692Z,27.13
2018-08-09T12:32:26.921Z,27.16
2018-08-09T12:35:30.848Z,27.16
2018-08-09T12:38:34.828Z,27.19
2018-08-09T12:41:39.012Z,27.18
2018-08-09T12:44:42.897Z,27.20
2018-08-09T12:47:46.845Z,27.22
2018-08-09T12:50:50.800Z,27.25
2018-08-09T12:53:54.916Z,27.29
2018-08-09T12:56:58.924Z,27.34
2018-08-09T13:00:03.154Z,27.38
2018-08-09T13:03:07.221Z,27.43
2018-08-09T13:06:12.376Z,27.47
2018-08-09T13:09:16.343Z,27.57
2018-08-09T13:12:20.614Z,27.66
2018-08-09T13:15:24.722Z,27.73
2018-08-09T13:18:28.701Z,27.82
2018-08-09T13:21:34.203Z,27.86
2018-08-09T13:24:38.476Z,27.92
2018-08-09T13:27:42.419Z,27.93
2018-08-09T13:30:46.333Z,27.98
2018-08-09T13:33:52.085Z,28.04
2018-08-09T13:36:55.967Z,28.12
2018-08-09T13:40:00.396Z,28.19
2018-08-09T13:43:04.331Z,28.28
2018-08-09T13:46:08.280Z,28.36
2018-08-09T13:49:12.224Z,28.37
2018-08-09T13:52:17.169Z,28.36
2018-08-09T13:55:21.361Z,28.38
2018-08-09T13:58:25.566Z,28.40
2018-08-09T14:01:29.903Z,28.42
2018-08-09T14:04:34.861Z,28.43
2018-08-09T14:07:39.983Z,28.46
2018-08-09T14:10:43.921Z,28.44
2018-08-09T14:13:48.421Z,28.47
2018-08-09T14:16:52.351Z,28.51
2018-08-09T14:19:56.470Z,28.53
2018-08-09T14:23:01.124Z,28.55
2018-08-09T14:26:05.389Z,28.59
2018-08-09T14:29:09.714Z,28.59
2018-08-09T14:32:13.670Z,28.57
2018-08-09T14:35:17.673Z,28.57
2018-08-09T14:38:21.920Z,28.54
2018-08-09T14:41:25.862Z,28.54
2018-08-09T14:44:30.116Z,28.54
2018-08-09T14:47:34.092Z,28.55
2018-08-09T14:50:38.344Z,28.57
2018-08-09T14:53:42.310Z,28.63
2018-08-09T14:56:46.408Z,28.70
2018-08-09T14:59:51.736Z,28.76
2018-08-09T15:02:56.434Z,28.82
2018-08-09T15:06:00.507Z,28.86
2018-08-09T15:09:07.615Z,28.92
2018-08-09T15:12:11.534Z,28.99
2018-08-09T15:15:15.784Z,29.07
2018-08-09T15:18:19.961Z,29.13
2018-08-09T15:21:26.368Z,29.18
2018-08-09T15:24:30.542Z,29.23
2018-08-09T15:27:34.551Z,29.28
2018-08-09T15:30:38.702Z,29.31
2018-08-09T15:33:42.734Z,29.31
2018-08-09T15:36:47.721Z,29.28
2018-08-09T15:39:52.041Z,29.29
2018-08-09T15:42:56.804Z,29.29
2018-08-09T15:46:01.048Z,29.31
2018-08-09T15:49:05.268Z,29.32
2018-08-09T15:52:09.287Z,29.33
2018-08-09T15:55:14.262Z,29.30
2018-08-09T15:58:18.382Z,29.29
2018-08-09T16:01:22.658Z,29.24
2018-08-09T16:04:26.874Z,29.21
2018-08-09T16:07:31.020Z,29.16
2018-08-09T16:10:34.961Z,29.11
2018-08-09T16:13:39.007Z,29.06
2018-08-09T16:16:43.002Z,29.00
2018-08-09T16:19:47.196Z,28.93
2018-08-09T16:22:51.402Z,28.86
2018-08-09T16:26:08.473Z,28.78
2018-08-09T16:29:12.701Z,28.71
2018-08-09T16:32:16.929Z,28.64
2018-08-09T16:35:20.852Z,28.59
2018-08-09T16:38:25.235Z,28.52
2018-08-09T16:41:29.147Z,28.47
2018-08-09T16:44:33.089Z,28.39
2018-08-09T16:47:38.065Z,28.33
2018-08-09T16:50:42.173Z,28.27
2018-08-09T16:53:46.638Z,28.19
2018-08-09T16:56:50.550Z,28.12
2018-08-09T16:59:54.542Z,28.05
2018-08-09T17:02:59.046Z,27.99
2018-08-09T17:06:03.312Z,27.93
2018-08-09T17:09:10.203Z,27.87
2018-08-09T17:12:14.492Z,27.80
2018-08-09T17:15:24.273Z,27.73
2018-08-09T17:18:29.383Z,27.66
2018-08-09T17:21:33.311Z,27.59
2018-08-09T17:24:37.460Z,27.52
2018-08-09T17:27:42.723Z,27.45
2018-08-09T17:30:46.716Z,27.38
2018-08-09T17:33:51.105Z,27.34
2018-08-09T17:36:55.232Z,27.13
2018-08-09T17:40:02.628Z,26.69
2018-08-09T17:43:07.460Z,26.24
2018-08-09T17:46:13.221Z,25.76
2018-08-09T17:49:17.109Z,25.74
2018-08-09T17:52:22.069Z,25.59
2018-08-09T17:55:26.245Z,25.38
2018-08-09T17:58:32.165Z,25.31
2018-08-09T18:01:36.423Z,25.18
2018-08-09T18:04:40.600Z,25.12
2018-08-09T18:07:44.696Z,24.96
2018-08-09T18:10:48.653Z,24.72
2018-08-09T18:13:52.675Z,24.53
2018-08-09T18:16:58.951Z,24.42
2018-08-09T18:20:03.931Z,24.29
2018-08-09T18:23:12.103Z,24.10
2018-08-09T18:26:16.132Z,24.07
2018-08-09T18:29:20.061Z,23.94
2018-08-09T18:32:24.590Z,23.90
2018-08-09T18:35:28.775Z,23.86
2018-08-09T18:38:33.077Z,23.75
2018-08-09T18:41:37.267Z,23.72
2018-08-09T18:44:41.232Z,23.70
2018-08-09T18:47:45.674Z,23.65
2018-08-09T18:50:49.725Z,23.61
2018-08-09T18:53:54.020Z,23.59
2018-08-09T18:56:58.389Z,23.54
2018-08-09T19:00:02.527Z,23.50
2018-08-09T19:03:06.689Z,23.44
2018-08-09T19:06:10.701Z,23.41
2018-08-09T19:09:14.759Z,23.38
2018-08-09T19:12:18.918Z,23.26
2018-08-09T19:15:22.849Z,23.23
2018-08-09T19:18:26.836Z,23.15
2018-08-09T19:21:31.912Z,23.14
2018-08-09T19:24:35.872Z,23.06
2018-08-09T19:27:39.899Z,23.01
2018-08-09T19:30:44.242Z,22.96
2018-08-09T19:33:48.189Z,22.92
2018-08-09T19:36:53.183Z,22.86
2018-08-09T19:39:57.256Z,22.81
2018-08-09T19:43:01.170Z,22.76
2018-08-09T19:46:05.966Z,22.71
2018-08-09T19:49:09.909Z,22.63
2018-08-09T19:52:24.283Z,22.58
2018-08-09T19:56:32.767Z,22.52
2018-08-09T19:59:37.238Z,22.46
2018-08-09T20:02:41.599Z,22.42
2018-08-09T20:05:45.583Z,22.36
2018-08-09T20:08:49.905Z,22.31
2018-08-09T20:11:54.471Z,22.28
2018-08-09T20:15:00.014Z,22.20
2018-08-09T20:18:03.949Z,22.18
2018-08-09T20:21:07.906Z,22.14
2018-08-09T20:24:11.866Z,22.08
2018-08-09T20:27:15.800Z,22.05
2018-08-09T20:30:20.501Z,22.00
2018-08-09T20:33:24.420Z,22.00
2018-08-09T20:36:28.447Z,21.96
2018-08-09T20:39:32.347Z,21.94
2018-08-09T20:42:37.516Z,21.91
2018-08-09T20:45:41.441Z,21.86
2018-08-09T20:48:45.634Z,21.79
2018-08-09T20:51:49.549Z,21.73
2018-08-09T20:54:53.739Z,21.65
2018-08-09T20:57:57.884Z,21.70
2018-08-09T21:01:01.921Z,21.66
2018-08-09T21:04:06.778Z,21.62
2018-08-09T21:07:11.066Z,21.58
2018-08-09T21:10:15.125Z,21.55
2018-08-09T21:13:19.075Z,21.56
2018-08-09T21:16:23.066Z,21.53
2018-08-09T21:19:27.372Z,21.52
2018-08-09T21:22:31.329Z,21.48
2018-08-09T21:25:35.294Z,21.49
2018-08-09T21:28:39.262Z,21.45
2018-08-09T21:31:43.262Z,21.45
2018-08-09T21:34:47.208Z,21.43
2018-08-09T21:37:51.170Z,21.42
2018-08-09T21:40:58.169Z,21.39
2018-08-09T21:44:03.211Z,21.38
2018-08-09T21:47:07.398Z,21.36
2018-08-09T21:50:13.925Z,21.35
2018-08-09T21:53:17.893Z,21.28
2018-08-09T21:56:22.832Z,21.28
2018-08-09T21:59:26.762Z,21.27
2018-08-09T22:02:30.757Z,21.24
2018-08-09T22:05:40.411Z,21.22
2018-08-09T22:08:50.917Z,21.20
2018-08-09T22:12:00.123Z,21.14
2018-08-09T22:15:09.935Z,21.12
2018-08-09T22:18:19.481Z,21.07
2018-08-09T22:21:29.260Z,21.06
2018-08-09T22:24:33.160Z,21.07
2018-08-09T22:27:37.570Z,21.05
2018-08-09T22:30:41.855Z,21.02
2018-08-09T22:33:46.216Z,21.03
2018-08-09T22:36:50.166Z,20.97
2018-08-09T22:39:54.679Z,20.95
2018-08-09T22:42:58.613Z,20.92
2018-08-09T22:46:03.962Z,20.91
2018-08-09T22:49:08.237Z,20.91
2018-08-09T22:52:12.219Z,20.89
2018-08-09T22:55:16.494Z,20.88
2018-08-09T22:58:20.781Z,20.85
2018-08-09T23:01:24.727Z,20.83
2018-08-09T23:04:28.708Z,20.80
2018-08-09T23:07:32.852Z,20.78
2018-08-09T23:10:37.169Z,20.75
2018-08-09T23:13:42.477Z,20.77
2018-08-09T23:16:46.746Z,20.72
2018-08-09T23:19:50.697Z,20.70
2018-08-09T23:22:54.890Z,20.70
2018-08-09T23:25:58.857Z,20.67
2018-08-09T23:29:03.046Z,20.64
2018-08-09T23:32:07.217Z,20.57
2018-08-09T23:35:11.629Z,20.51
2018-08-09T23:38:15.573Z,20.45
2018-08-09T23:41:20.510Z,20.42
2018-08-09T23:44:24.694Z,20.30
2018-08-09T23:47:28.956Z,20.30
2018-08-09T23:50:33.450Z,20.25
2018-08-09T23:53:38.251Z,20.06
2018-08-09T23:56:42.224Z,19.96
2018-08-09T23:59:46.562Z,19.85
